Terminal Aerodrome Forecast
Issued by NWS

Home | Current Version | Previous Version | Text Only | Print | Product List | Glossary On
Versions: 1 2 3 4 5 6 7 8 9 10 11 12 13 14 15 16 17 18 19 20 21 22 23 24 25 26 27 28 29 30 31 32 33 34 35 36 37 38 39
000
FTUS44 KFWD 270520
TAFGKY
TAF
KGKY 270520Z 2706/2806 16012KT P6SM VCTS SCT040CB BKN120
      TEMPO 2706/2709 P6SM -TSRA BKN040CB
     FM271000 17009KT 5SM BR BKN015
      TEMPO 2711/2714 3SM BR OVC007
     FM271600 18010KT P6SM OVC015
     FM272000 18010KT P6SM VCTS BKN035CB
     FM280100 15010KT P6SM SCT040 BKN130=

USA.gov is the U.S. government's official web portal to all federal, state and local government web resources and services.